createdAt,value
2022-08-17T00:00:09.172Z,31.25
2022-08-17T00:03:17.784Z,26.92
2022-08-17T00:06:28.043Z,28.20
2022-08-17T00:09:43.559Z,21.27
2022-08-17T00:12:43.611Z,23.70
2022-08-17T00:15:00.485Z,26.67
2022-08-17T00:17:27.970Z,19.42
2022-08-17T00:19:54.884Z,24.33
2022-08-17T00:22:34.290Z,29.00
2022-08-17T00:25:12.086Z,27.48
2022-08-17T00:27:39.045Z,25.98
2022-08-17T00:30:08.761Z,26.63
2022-08-17T00:33:15.480Z,32.22
2022-08-17T00:35:35.139Z,24.13
2022-08-17T00:38:04.118Z,31.00
2022-08-17T00:40:40.012Z,32.28
2022-08-17T00:43:37.298Z,30.13
2022-08-17T00:46:08.409Z,28.33
2022-08-17T00:49:56.981Z,34.88
2022-08-17T00:52:46.948Z,27.15
2022-08-17T00:56:09.461Z,31.05
2022-08-17T00:58:37.380Z,27.30
2022-08-17T01:01:06.176Z,36.25
2022-08-17T01:03:33.702Z,33.53
2022-08-17T01:06:01.677Z,30.70
2022-08-17T01:08:31.614Z,29.48
2022-08-17T01:11:04.119Z,24.42
2022-08-17T01:13:40.789Z,30.20
2022-08-17T01:16:29.027Z,22.67
2022-08-17T01:18:59.611Z,26.20
2022-08-17T01:21:43.967Z,26.10
2022-08-17T01:24:10.874Z,31.05
2022-08-17T01:26:39.946Z,19.45
2022-08-17T01:29:07.096Z,26.98
2022-08-17T01:31:40.130Z,26.02
2022-08-17T01:34:09.420Z,23.17
2022-08-17T01:36:57.057Z,39.90
2022-08-17T01:39:34.440Z,32.45
2022-08-17T01:42:17.946Z,32.78
2022-08-17T01:44:51.624Z,26.60
2022-08-17T01:47:39.589Z,29.95
2022-08-17T01:53:59.574Z,26.90
2022-08-17T01:56:37.306Z,29.73
2022-08-17T02:01:53.233Z,31.85
2022-08-17T02:04:27.389Z,34.00
2022-08-17T02:07:11.145Z,31.23
2022-08-17T02:09:54.832Z,23.25
2022-08-17T02:18:47.619Z,29.45
2022-08-17T02:21:31.052Z,21.15
2022-08-17T02:29:32.668Z,32.90
2022-08-17T02:39:01.346Z,27.85
2022-08-17T02:42:03.652Z,22.00
2022-08-17T02:44:39.132Z,23.55
2022-08-17T02:47:08.576Z,28.17
2022-08-17T02:49:35.975Z,24.30
2022-08-17T02:52:53.402Z,27.63
2022-08-17T02:55:55.121Z,22.25
2022-08-17T03:06:34.888Z,30.02
2022-08-17T03:14:20.859Z,31.63
2022-08-17T03:59:26.025Z,31.17
2022-08-17T04:03:42.254Z,34.20
2022-08-17T04:06:30.007Z,31.67
2022-08-17T04:09:43.219Z,34.55
2022-08-17T04:21:12.346Z,34.03
2022-08-17T04:26:53.785Z,26.48
2022-08-17T04:29:55.183Z,33.63
2022-08-17T04:33:10.555Z,44.65
2022-08-17T04:36:05.357Z,38.67
2022-08-17T04:39:33.965Z,32.60
2022-08-17T04:42:20.109Z,34.42
2022-08-17T04:44:50.353Z,34.60
2022-08-17T04:47:17.456Z,27.85
2022-08-17T04:49:47.651Z,25.58
2022-08-17T04:52:43.701Z,43.78
2022-08-17T04:55:33.191Z,31.08
2022-08-17T04:58:11.904Z,28.25
2022-08-17T05:00:39.915Z,30.95
2022-08-17T05:03:06.965Z,36.67
2022-08-17T05:05:36.685Z,45.15
2022-08-17T05:08:06.241Z,33.70
2022-08-17T05:10:35.715Z,34.10
2022-08-17T05:13:15.459Z,29.95
2022-08-17T05:15:45.209Z,29.13
2022-08-17T05:18:15.625Z,23.90
2022-08-17T05:20:43.083Z,22.27
2022-08-17T05:23:12.956Z,19.75
2022-08-17T05:25:47.370Z,30.15
2022-08-17T05:28:16.762Z,28.15
2022-08-17T05:30:48.625Z,22.35
2022-08-17T05:33:17.243Z,23.48
2022-08-17T05:35:49.255Z,31.08
2022-08-17T05:38:18.075Z,33.25
2022-08-17T05:40:45.890Z,30.08
2022-08-17T05:43:17.737Z,25.10
2022-08-17T05:46:22.283Z,21.67
2022-08-17T05:49:08.652Z,27.48
2022-08-17T05:51:55.465Z,28.35
2022-08-17T05:54:30.360Z,27.05
2022-08-17T05:57:02.191Z,18.08
2022-08-17T05:59:34.936Z,22.13
2022-08-17T06:05:11.111Z,26.38
2022-08-17T06:07:41.088Z,18.75
2022-08-17T06:10:37.188Z,14.40
2022-08-17T06:13:36.375Z,19.33
2022-08-17T06:16:33.721Z,16.88
2022-08-17T06:19:06.638Z,18.98
2022-08-17T06:21:36.447Z,25.88
2022-08-17T06:24:08.561Z,20.70
2022-08-17T06:26:43.151Z,24.08
2022-08-17T06:29:37.260Z,26.58
2022-08-17T06:32:05.757Z,15.20
2022-08-17T06:34:33.925Z,13.93
2022-08-17T06:37:09.115Z,18.15
2022-08-17T06:39:50.763Z,23.13
2022-08-17T06:43:05.150Z,19.27
2022-08-17T06:45:44.148Z,17.92
2022-08-17T06:48:25.610Z,18.20
2022-08-17T06:51:00.046Z,16.95
2022-08-17T06:53:32.190Z,14.77
2022-08-17T06:56:07.097Z,18.13
2022-08-17T06:58:35.734Z,17.20
2022-08-17T07:01:18.215Z,17.70
2022-08-17T07:04:00.238Z,16.67
2022-08-17T07:06:38.068Z,21.60
2022-08-17T07:09:31.925Z,17.30
2022-08-17T07:12:03.212Z,28.25
2022-08-17T07:14:36.504Z,20.98
2022-08-17T07:17:14.926Z,23.65
2022-08-17T07:19:45.436Z,19.13
2022-08-17T07:22:57.719Z,15.70
2022-08-17T07:25:21.447Z,15.30
2022-08-17T07:27:52.645Z,18.63
2022-08-17T07:30:23.572Z,15.48
2022-08-17T07:33:03.716Z,16.92
2022-08-17T07:35:40.873Z,12.98
2022-08-17T07:38:22.218Z,15.15
2022-08-17T07:40:59.285Z,16.15
2022-08-17T07:46:38.547Z,20.60
2022-08-17T07:49:08.740Z,21.08
2022-08-17T07:51:57.176Z,25.95
2022-08-17T07:54:39.475Z,18.20
2022-08-17T07:57:15.213Z,18.50
2022-08-17T08:00:01.246Z,18.23
2022-08-17T08:02:40.297Z,18.13
2022-08-17T08:05:44.284Z,19.85
2022-08-17T08:08:42.411Z,17.63
2022-08-17T08:11:15.736Z,15.15
2022-08-17T08:13:45.769Z,19.85
2022-08-17T08:16:24.704Z,20.48
2022-08-17T08:19:01.742Z,19.98
2022-08-17T08:21:49.383Z,20.88
2022-08-17T08:24:31.387Z,20.63
2022-08-17T08:27:21.144Z,15.15
2022-08-17T08:29:48.001Z,26.23
2022-08-17T08:32:40.904Z,22.73
2022-08-17T08:35:31.025Z,20.60
2022-08-17T08:38:49.024Z,16.38
2022-08-17T08:41:19.313Z,17.63
2022-08-17T08:44:13.716Z,16.88
2022-08-17T08:46:47.259Z,20.85
2022-08-17T08:50:03.525Z,19.80
2022-08-17T08:53:01.306Z,19.77
2022-08-17T08:55:34.560Z,22.13
2022-08-17T08:58:07.542Z,19.60
2022-08-17T09:00:56.825Z,29.85
2022-08-17T09:03:51.788Z,22.40
2022-08-17T09:06:37.527Z,22.38
2022-08-17T09:09:38.882Z,22.70
2022-08-17T09:12:13.887Z,29.05
2022-08-17T09:14:47.065Z,31.13
2022-08-17T09:17:42.358Z,24.23
2022-08-17T09:20:28.691Z,22.67
2022-08-17T09:22:59.878Z,32.63
2022-08-17T09:25:32.659Z,30.13
2022-08-17T09:28:06.868Z,22.52
2022-08-17T09:31:04.265Z,24.90
2022-08-17T09:33:35.643Z,36.60
2022-08-17T09:36:05.858Z,18.40
2022-08-17T09:38:52.948Z,26.33
2022-08-17T09:41:34.184Z,23.48
2022-08-17T09:44:02.986Z,29.55
2022-08-17T09:46:34.728Z,17.15
2022-08-17T09:49:33.924Z,26.63
2022-08-17T09:52:25.697Z,20.42
2022-08-17T09:54:54.773Z,16.98
2022-08-17T09:57:31.690Z,24.55
2022-08-17T10:00:18.646Z,28.15
2022-08-17T10:02:55.470Z,25.08
2022-08-17T10:05:28.211Z,16.08
2022-08-17T10:10:36.086Z,27.38
2022-08-17T10:13:35.426Z,20.98
2022-08-17T10:16:23.171Z,19.55
2022-08-17T10:19:27.413Z,24.63
2022-08-17T10:22:32.774Z,22.52
2022-08-17T10:25:23.729Z,20.98
2022-08-17T10:27:55.282Z,26.10
2022-08-17T10:30:27.285Z,22.77
2022-08-17T10:33:00.375Z,19.57
2022-08-17T10:35:33.927Z,23.58
2022-08-17T10:38:16.038Z,24.70
2022-08-17T10:40:57.537Z,19.65
2022-08-17T10:43:35.474Z,18.60
2022-08-17T10:46:30.376Z,20.20
2022-08-17T10:49:18.452Z,17.85
2022-08-17T10:51:48.024Z,13.98
2022-08-17T10:54:24.197Z,23.58
2022-08-17T10:56:53.076Z,13.43
2022-08-17T10:59:35.134Z,20.92
2022-08-17T11:02:14.333Z,17.83
2022-08-17T11:05:15.198Z,17.50
2022-08-17T11:08:05.554Z,16.52
2022-08-17T11:10:46.468Z,24.08
2022-08-17T11:13:39.621Z,18.08
2022-08-17T11:16:08.497Z,13.20
2022-08-17T11:19:08.520Z,19.35
2022-08-17T11:21:41.478Z,18.60
2022-08-17T11:24:27.596Z,16.63
2022-08-17T11:27:27.236Z,19.77
2022-08-17T11:30:01.450Z,12.18
2022-08-17T11:32:47.539Z,18.50
2022-08-17T11:35:21.638Z,13.77
2022-08-17T11:37:51.157Z,15.43
2022-08-17T11:40:53.487Z,17.42
2022-08-17T11:43:25.447Z,19.20
2022-08-17T11:46:10.791Z,24.60
2022-08-17T11:49:08.046Z,14.63
2022-08-17T11:52:01.150Z,18.10
2022-08-17T11:54:33.665Z,18.83
2022-08-17T11:57:26.580Z,16.05
2022-08-17T11:59:55.133Z,11.77
2022-08-17T12:02:38.723Z,22.48
2022-08-17T12:05:14.621Z,16.63
2022-08-17T12:08:20.209Z,13.93
2022-08-17T12:11:09.156Z,17.95
2022-08-17T12:13:43.011Z,22.80
2022-08-17T12:16:14.787Z,14.05
2022-08-17T12:18:52.768Z,17.88
2022-08-17T12:21:26.086Z,19.52
2022-08-17T12:24:06.544Z,12.57
2022-08-17T12:26:36.691Z,17.75
2022-08-17T12:29:07.150Z,18.38
2022-08-17T12:31:47.528Z,17.55
2022-08-17T12:34:26.901Z,15.20
2022-08-17T12:37:03.170Z,22.70
2022-08-17T12:39:33.983Z,14.18
2022-08-17T12:42:03.013Z,9.50
2022-08-17T12:44:33.697Z,13.15
2022-08-17T12:47:29.459Z,16.73
2022-08-17T12:50:08.332Z,17.23
2022-08-17T12:52:59.704Z,17.50
2022-08-17T12:55:32.536Z,12.02
2022-08-17T12:58:02.026Z,15.35
2022-08-17T13:00:41.046Z,17.40
2022-08-17T13:03:23.718Z,17.17
2022-08-17T13:06:03.962Z,23.67
2022-08-17T13:08:37.639Z,18.83
2022-08-17T13:11:16.566Z,18.30
2022-08-17T13:13:46.464Z,17.92
2022-08-17T13:16:17.015Z,18.73
2022-08-17T13:18:45.463Z,21.65
2022-08-17T13:21:26.686Z,22.33
2022-08-17T13:24:04.655Z,14.70
2022-08-17T13:26:43.236Z,17.77
2022-08-17T13:29:25.867Z,24.63
2022-08-17T13:32:01.113Z,17.75
2022-08-17T13:35:11.560Z,14.27
2022-08-17T13:37:34.760Z,31.63
2022-08-17T13:40:05.239Z,23.65
2022-08-17T13:42:52.157Z,19.63
2022-08-17T13:45:36.227Z,22.52
2022-08-17T13:48:21.552Z,18.55
2022-08-17T13:50:49.904Z,24.80
2022-08-17T13:53:24.530Z,13.05
2022-08-17T13:55:56.893Z,11.77
2022-08-17T13:58:40.627Z,12.43
2022-08-17T14:01:29.754Z,17.38
2022-08-17T14:03:57.785Z,14.07
2022-08-17T14:06:52.539Z,18.95
2022-08-17T14:09:24.253Z,18.92
2022-08-17T14:11:52.029Z,14.98
2022-08-17T14:14:19.196Z,15.57
2022-08-17T14:16:46.057Z,22.52
2022-08-17T14:19:13.980Z,26.25
2022-08-17T14:21:42.994Z,18.00
2022-08-17T14:24:20.199Z,19.80
2022-08-17T14:26:47.428Z,20.35
2022-08-17T14:29:15.439Z,22.00
2022-08-17T14:31:42.451Z,24.13
2022-08-17T14:36:45.423Z,20.75
2022-08-17T14:39:16.282Z,33.63
2022-08-17T14:41:43.354Z,31.25
2022-08-17T14:44:13.781Z,32.72
2022-08-17T14:46:42.986Z,25.17
2022-08-17T14:49:11.393Z,24.58
2022-08-17T14:51:39.707Z,25.58
2022-08-17T14:54:33.053Z,25.80
2022-08-17T14:57:15.585Z,28.10
2022-08-17T14:59:49.214Z,21.92
2022-08-17T15:02:29.648Z,18.17
2022-08-17T15:05:06.085Z,13.63
2022-08-17T15:07:33.107Z,21.10
2022-08-17T15:10:02.480Z,22.63
2022-08-17T15:12:34.592Z,30.15
2022-08-17T15:15:05.405Z,23.27
2022-08-17T15:17:54.677Z,29.67
2022-08-17T15:20:28.095Z,24.88
2022-08-17T15:22:56.095Z,26.45
2022-08-17T15:25:27.596Z,22.88
2022-08-17T15:27:55.921Z,25.85
2022-08-17T15:30:23.416Z,24.67
2022-08-17T15:32:55.096Z,13.68
2022-08-17T15:35:27.359Z,27.80
2022-08-17T15:38:11.529Z,16.95
2022-08-17T15:40:43.830Z,23.08
2022-08-17T15:43:27.646Z,31.58
2022-08-17T15:45:59.905Z,22.27
2022-08-17T15:48:41.165Z,18.00
2022-08-17T15:51:27.404Z,28.65
2022-08-17T15:53:59.651Z,20.95
2022-08-17T15:56:31.766Z,27.30
2022-08-17T15:58:59.051Z,24.63
2022-08-17T16:02:07.743Z,18.77
2022-08-17T16:04:29.532Z,29.30
2022-08-17T16:06:58.885Z,22.00
2022-08-17T16:09:26.417Z,21.65
2022-08-17T16:11:55.573Z,20.45
2022-08-17T16:14:24.230Z,29.50
2022-08-17T16:16:51.693Z,22.88
2022-08-17T16:19:18.909Z,19.75
2022-08-17T16:21:45.772Z,24.10
2022-08-17T16:24:12.737Z,24.92
2022-08-17T16:26:41.280Z,27.85
2022-08-17T16:29:12.571Z,23.83
2022-08-17T16:31:41.787Z,28.60
2022-08-17T16:34:16.775Z,36.65
2022-08-17T16:36:55.507Z,29.90
2022-08-17T16:39:28.942Z,32.08
2022-08-17T16:41:57.768Z,47.13
2022-08-17T16:44:33.381Z,30.40
2022-08-17T16:47:03.405Z,43.63
2022-08-17T16:49:37.495Z,37.17
2022-08-17T16:52:07.387Z,32.65
2022-08-17T16:54:35.577Z,24.67
2022-08-17T16:57:05.068Z,31.38
2022-08-17T16:59:40.258Z,31.58
2022-08-17T17:02:14.321Z,32.85
2022-08-17T17:04:48.494Z,40.35
2022-08-17T17:07:34.796Z,41.40
2022-08-17T17:10:09.607Z,22.23
2022-08-17T17:13:01.586Z,30.98
2022-08-17T17:15:31.543Z,34.90
2022-08-17T17:18:07.322Z,30.40
2022-08-17T17:20:45.802Z,27.42
2022-08-17T17:23:48.574Z,32.13
2022-08-17T17:26:27.793Z,29.33
2022-08-17T17:29:18.227Z,37.83
2022-08-17T17:32:10.431Z,30.52
2022-08-17T17:34:38.425Z,40.05
2022-08-17T17:37:13.548Z,30.35
2022-08-17T17:39:48.964Z,34.55
2022-08-17T17:42:20.785Z,28.45
2022-08-17T17:44:53.640Z,33.13
2022-08-17T17:47:23.815Z,29.27
2022-08-17T17:49:50.828Z,29.45
2022-08-17T17:52:31.212Z,27.65
2022-08-17T17:55:04.513Z,37.58
2022-08-17T17:58:17.859Z,44.47
2022-08-17T18:01:11.565Z,42.67
2022-08-17T18:06:31.336Z,41.03
2022-08-17T18:09:53.764Z,37.28
2022-08-17T18:12:36.311Z,39.08
2022-08-17T18:15:20.030Z,40.40
2022-08-17T18:18:00.877Z,49.10
2022-08-17T18:20:36.031Z,45.88
2022-08-17T18:23:15.445Z,47.75
2022-08-17T18:25:44.673Z,44.25
2022-08-17T18:28:26.636Z,51.08
2022-08-17T18:31:18.633Z,41.33
2022-08-17T18:33:49.299Z,51.92
2022-08-17T18:36:31.104Z,47.42
2022-08-17T18:39:15.671Z,54.40
2022-08-17T18:41:48.018Z,53.38
2022-08-17T18:44:25.590Z,64.20
2022-08-17T18:47:05.518Z,61.50
2022-08-17T18:49:33.291Z,48.28
2022-08-17T18:52:26.029Z,66.63
2022-08-17T18:55:05.458Z,55.67
2022-08-17T18:57:38.086Z,56.63
2022-08-17T19:00:22.374Z,56.95
2022-08-17T19:02:56.500Z,54.88
2022-08-17T19:05:40.199Z,58.25
2022-08-17T19:08:31.240Z,48.33
2022-08-17T19:11:04.737Z,63.40
2022-08-17T19:13:54.634Z,59.88
2022-08-17T19:16:59.486Z,52.55
2022-08-17T19:19:51.819Z,51.85
2022-08-17T19:22:28.949Z,59.92
2022-08-17T19:25:09.299Z,54.05
2022-08-17T19:27:46.331Z,49.88
2022-08-17T19:30:16.966Z,58.15
2022-08-17T19:32:43.933Z,56.35
2022-08-17T19:35:17.149Z,49.10
2022-08-17T19:37:53.769Z,51.80
2022-08-17T19:40:48.938Z,53.08
2022-08-17T19:43:47.848Z,49.00
2022-08-17T19:46:31.929Z,51.00
2022-08-17T19:49:15.846Z,50.30
2022-08-17T19:51:52.169Z,50.42
2022-08-17T19:54:28.781Z,55.28
2022-08-17T19:57:16.999Z,56.40
2022-08-17T19:59:56.188Z,59.17
2022-08-17T20:02:46.099Z,54.10
2022-08-17T20:06:01.388Z,58.20
2022-08-17T20:08:38.794Z,49.42
2022-08-17T20:11:14.937Z,51.90
2022-08-17T20:13:54.897Z,56.85
2022-08-17T20:16:22.421Z,53.00
2022-08-17T20:18:55.756Z,53.58
2022-08-17T20:21:37.310Z,56.92
2022-08-17T20:24:39.400Z,57.80
2022-08-17T20:27:12.273Z,57.30
2022-08-17T20:30:05.514Z,56.20
2022-08-17T20:32:52.495Z,55.92
2022-08-17T20:35:25.857Z,55.03
2022-08-17T20:38:14.548Z,61.78
2022-08-17T20:40:57.482Z,57.88
2022-08-17T20:43:33.463Z,51.90
2022-08-17T20:46:09.336Z,50.47
2022-08-17T20:48:43.365Z,58.75
2022-08-17T20:51:22.951Z,48.17
2022-08-17T20:53:49.780Z,59.78
2022-08-17T20:56:44.351Z,57.53
2022-08-17T20:59:25.562Z,54.55
2022-08-17T21:02:13.834Z,55.65
2022-08-17T21:04:52.933Z,49.13
2022-08-17T21:07:43.592Z,37.05
2022-08-17T21:10:21.433Z,32.03
2022-08-17T21:13:15.282Z,33.45
2022-08-17T21:15:48.613Z,31.42
2022-08-17T21:18:30.731Z,30.65
2022-08-17T21:20:57.529Z,36.45
2022-08-17T21:23:55.376Z,29.35
2022-08-17T21:26:30.324Z,25.25
2022-08-17T21:29:29.893Z,23.23
2022-08-17T21:32:05.515Z,20.58
2022-08-17T21:34:44.209Z,25.42
2022-08-17T21:37:20.426Z,20.40
2022-08-17T21:39:52.043Z,21.75
2022-08-17T21:42:29.806Z,21.15
2022-08-17T21:45:08.513Z,19.58
2022-08-17T21:47:35.399Z,18.42
2022-08-17T21:50:24.027Z,14.73
2022-08-17T21:52:54.123Z,17.35
2022-08-17T21:55:30.638Z,19.02
2022-08-17T21:58:13.341Z,23.42
2022-08-17T22:00:44.762Z,18.13
2022-08-17T22:03:24.072Z,20.60
2022-08-17T22:05:57.271Z,22.77
2022-08-17T22:08:51.562Z,23.23
2022-08-17T22:16:28.599Z,19.92
2022-08-17T22:19:04.084Z,19.38
2022-08-17T22:21:33.618Z,25.42
2022-08-17T22:24:35.673Z,16.27
2022-08-17T22:27:10.421Z,24.88
2022-08-17T22:30:01.081Z,22.67
2022-08-17T22:32:46.780Z,22.80
2022-08-17T22:35:19.943Z,20.40
2022-08-17T22:37:46.964Z,26.08
2022-08-17T22:40:26.027Z,27.42
2022-08-17T22:42:53.811Z,27.60
2022-08-17T22:45:25.391Z,22.80
2022-08-17T22:48:12.486Z,21.85
2022-08-17T22:50:41.431Z,20.52
2022-08-17T22:53:54.485Z,22.95
2022-08-17T22:56:53.815Z,22.27
2022-08-17T23:00:51.365Z,23.25
2022-08-17T23:09:25.128Z,22.33
2022-08-17T23:12:28.439Z,23.23
2022-08-17T23:35:40.445Z,31.48
2022-08-17T23:59:50.612Z,30.02
